sensor_id;sensor_type;location;lat;lon;timestamp;P1;durP1;ratioP1;P2;durP2;ratioP2
12650;SDS011;6390;49.400;8.670;2023-02-26T00:00:05;1.50;;;1.30;;
12650;SDS011;6390;49.400;8.670;2023-02-26T00:02:36;1.23;;;1.13;;
12650;SDS011;6390;49.400;8.670;2023-02-26T00:05:03;1.17;;;1.08;;
12650;SDS011;6390;49.400;8.670;2023-02-26T00:07:30;1.00;;;1.00;;
12650;SDS011;6390;49.400;8.670;2023-02-26T00:09:56;1.30;;;1.20;;
12650;SDS011;6390;49.400;8.670;2023-02-26T00:12:22;1.70;;;1.10;;
12650;SDS011;6390;49.400;8.670;2023-02-26T00:14:49;1.40;;;1.30;;
12650;SDS011;6390;49.400;8.670;2023-02-26T00:17:32;1.45;;;1.35;;
12650;SDS011;6390;49.400;8.670;2023-02-26T00:20:13;1.30;;;1.20;;
12650;SDS011;6390;49.400;8.670;2023-02-26T00:22:41;1.42;;;1.20;;
12650;SDS011;6390;49.400;8.670;2023-02-26T00:25:07;1.27;;;1.00;;
12650;SDS011;6390;49.400;8.670;2023-02-26T00:27:34;1.30;;;1.20;;
12650;SDS011;6390;49.400;8.670;2023-02-26T00:30:02;1.40;;;1.30;;
12650;SDS011;6390;49.400;8.670;2023-02-26T00:32:31;1.30;;;1.20;;
12650;SDS011;6390;49.400;8.670;2023-02-26T00:34:57;1.58;;;1.25;;
12650;SDS011;6390;49.400;8.670;2023-02-26T00:43:18;1.90;;;1.10;;
12650;SDS011;6390;49.400;8.670;2023-02-26T00:51:48;1.20;;;1.10;;
12650;SDS011;6390;49.400;8.670;2023-02-26T00:56:54;1.02;;;0.93;;
12650;SDS011;6390;49.400;8.670;2023-02-26T00:59:22;1.45;;;1.30;;
12650;SDS011;6390;49.400;8.670;2023-02-26T01:01:48;2.35;;;1.20;;
12650;SDS011;6390;49.400;8.670;2023-02-26T01:04:16;1.55;;;1.10;;
12650;SDS011;6390;49.400;8.670;2023-02-26T01:06:46;2.35;;;1.17;;
12650;SDS011;6390;49.400;8.670;2023-02-26T01:09:25;1.35;;;1.10;;
12650;SDS011;6390;49.400;8.670;2023-02-26T01:11:59;1.77;;;1.45;;
12650;SDS011;6390;49.400;8.670;2023-02-26T01:14:33;1.35;;;1.25;;
12650;SDS011;6390;49.400;8.670;2023-02-26T01:25:21;1.38;;;1.27;;
12650;SDS011;6390;49.400;8.670;2023-02-26T01:27:51;1.63;;;1.20;;
12650;SDS011;6390;49.400;8.670;2023-02-26T01:30:20;1.50;;;1.40;;
12650;SDS011;6390;49.400;8.670;2023-02-26T01:38:16;1.33;;;1.23;;
12650;SDS011;6390;49.400;8.670;2023-02-26T01:47:03;1.40;;;1.30;;
12650;SDS011;6390;49.400;8.670;2023-02-26T01:49:41;2.20;;;1.40;;
12650;SDS011;6390;49.400;8.670;2023-02-26T01:55:11;1.40;;;1.25;;
12650;SDS011;6390;49.400;8.670;2023-02-26T01:57:38;1.30;;;1.20;;
12650;SDS011;6390;49.400;8.670;2023-02-26T02:00:05;3.17;;;1.60;;
12650;SDS011;6390;49.400;8.670;2023-02-26T02:02:32;1.02;;;1.00;;
12650;SDS011;6390;49.400;8.670;2023-02-26T02:05:01;1.70;;;1.60;;
12650;SDS011;6390;49.400;8.670;2023-02-26T02:07:31;1.20;;;1.10;;
12650;SDS011;6390;49.400;8.670;2023-02-26T02:09:57;1.55;;;1.45;;
12650;SDS011;6390;49.400;8.670;2023-02-26T02:12:45;1.38;;;1.05;;
12650;SDS011;6390;49.400;8.670;2023-02-26T02:15:29;3.90;;;1.38;;
12650;SDS011;6390;49.400;8.670;2023-02-26T02:21:32;1.50;;;1.40;;
12650;SDS011;6390;49.400;8.670;2023-02-26T02:27:39;2.20;;;1.40;;
12650;SDS011;6390;49.400;8.670;2023-02-26T02:36:29;1.40;;;1.30;;
12650;SDS011;6390;49.400;8.670;2023-02-26T02:39:27;1.90;;;1.27;;
12650;SDS011;6390;49.400;8.670;2023-02-26T02:44:52;1.50;;;1.40;;
12650;SDS011;6390;49.400;8.670;2023-02-26T02:47:26;2.10;;;1.70;;
12650;SDS011;6390;49.400;8.670;2023-02-26T02:49:58;2.08;;;1.45;;
12650;SDS011;6390;49.400;8.670;2023-02-26T02:52:41;2.33;;;1.67;;
12650;SDS011;6390;49.400;8.670;2023-02-26T02:55:23;1.77;;;1.58;;
12650;SDS011;6390;49.400;8.670;2023-02-26T03:00:30;2.97;;;1.40;;
12650;SDS011;6390;49.400;8.670;2023-02-26T03:05:57;1.50;;;1.40;;
12650;SDS011;6390;49.400;8.670;2023-02-26T03:08:26;1.65;;;1.40;;
12650;SDS011;6390;49.400;8.670;2023-02-26T03:10:55;3.22;;;1.63;;
12650;SDS011;6390;49.400;8.670;2023-02-26T03:13:22;2.08;;;1.50;;
12650;SDS011;6390;49.400;8.670;2023-02-26T03:15:56;2.03;;;1.40;;
12650;SDS011;6390;49.400;8.670;2023-02-26T03:21:29;1.58;;;1.30;;
12650;SDS011;6390;49.400;8.670;2023-02-26T03:24:14;1.48;;;1.38;;
12650;SDS011;6390;49.400;8.670;2023-02-26T03:29:27;3.35;;;1.50;;
12650;SDS011;6390;49.400;8.670;2023-02-26T03:32:54;1.35;;;1.25;;
12650;SDS011;6390;49.400;8.670;2023-02-26T03:35:08;1.90;;;1.65;;
12650;SDS011;6390;49.400;8.670;2023-02-26T03:37:41;1.27;;;1.15;;
12650;SDS011;6390;49.400;8.670;2023-02-26T03:40:14;1.60;;;1.50;;
12650;SDS011;6390;49.400;8.670;2023-02-26T03:42:59;1.48;;;1.35;;
12650;SDS011;6390;49.400;8.670;2023-02-26T03:45:32;2.35;;;1.30;;
12650;SDS011;6390;49.400;8.670;2023-02-26T03:48:01;1.40;;;1.30;;
12650;SDS011;6390;49.400;8.670;2023-02-26T03:50:43;1.85;;;1.63;;
12650;SDS011;6390;49.400;8.670;2023-02-26T03:53:14;1.52;;;1.42;;
12650;SDS011;6390;49.400;8.670;2023-02-26T03:55:47;1.40;;;1.30;;
12650;SDS011;6390;49.400;8.670;2023-02-26T03:58:28;3.17;;;1.58;;
12650;SDS011;6390;49.400;8.670;2023-02-26T04:00:56;1.60;;;1.50;;
12650;SDS011;6390;49.400;8.670;2023-02-26T04:03:31;1.88;;;1.60;;
12650;SDS011;6390;49.400;8.670;2023-02-26T04:06:04;1.70;;;1.60;;
12650;SDS011;6390;49.400;8.670;2023-02-26T04:08:30;1.75;;;1.60;;
12650;SDS011;6390;49.400;8.670;2023-02-26T04:10:58;1.45;;;1.35;;
12650;SDS011;6390;49.400;8.670;2023-02-26T04:13:35;1.95;;;1.50;;
12650;SDS011;6390;49.400;8.670;2023-02-26T04:16:02;1.60;;;1.50;;
12650;SDS011;6390;49.400;8.670;2023-02-26T04:18:28;2.65;;;1.75;;
12650;SDS011;6390;49.400;8.670;2023-02-26T04:20:54;1.60;;;1.50;;
12650;SDS011;6390;49.400;8.670;2023-02-26T04:23:20;2.20;;;1.60;;
12650;SDS011;6390;49.400;8.670;2023-02-26T04:25:46;2.53;;;1.60;;
12650;SDS011;6390;49.400;8.670;2023-02-26T04:28:13;2.53;;;1.40;;
12650;SDS011;6390;49.400;8.670;2023-02-26T04:30:39;1.52;;;1.40;;
12650;SDS011;6390;49.400;8.670;2023-02-26T04:33:05;3.30;;;1.58;;
12650;SDS011;6390;49.400;8.670;2023-02-26T04:35:31;1.85;;;1.50;;
12650;SDS011;6390;49.400;8.670;2023-02-26T04:37:57;1.67;;;1.45;;
12650;SDS011;6390;49.400;8.670;2023-02-26T04:40:23;2.95;;;1.40;;
12650;SDS011;6390;49.400;8.670;2023-02-26T04:42:50;1.48;;;1.38;;
12650;SDS011;6390;49.400;8.670;2023-02-26T04:45:16;1.75;;;1.30;;
12650;SDS011;6390;49.400;8.670;2023-02-26T04:47:42;1.50;;;1.40;;
12650;SDS011;6390;49.400;8.670;2023-02-26T04:50:08;1.63;;;1.52;;
12650;SDS011;6390;49.400;8.670;2023-02-26T04:52:35;2.72;;;1.48;;
12650;SDS011;6390;49.400;8.670;2023-02-26T04:55:01;1.50;;;1.27;;
12650;SDS011;6390;49.400;8.670;2023-02-26T04:57:27;1.83;;;1.48;;
12650;SDS011;6390;49.400;8.670;2023-02-26T04:59:53;1.60;;;1.48;;
12650;SDS011;6390;49.400;8.670;2023-02-26T05:02:19;1.50;;;1.40;;
12650;SDS011;6390;49.400;8.670;2023-02-26T05:04:45;1.15;;;1.05;;
12650;SDS011;6390;49.400;8.670;2023-02-26T05:07:11;1.70;;;1.30;;
12650;SDS011;6390;49.400;8.670;2023-02-26T05:09:37;1.40;;;1.23;;
12650;SDS011;6390;49.400;8.670;2023-02-26T05:12:04;2.35;;;1.52;;
12650;SDS011;6390;49.400;8.670;2023-02-26T05:14:30;1.17;;;1.08;;
12650;SDS011;6390;49.400;8.670;2023-02-26T05:16:56;2.23;;;1.10;;
12650;SDS011;6390;49.400;8.670;2023-02-26T05:19:22;1.20;;;1.10;;
12650;SDS011;6390;49.400;8.670;2023-02-26T05:21:48;1.40;;;1.20;;
12650;SDS011;6390;49.400;8.670;2023-02-26T05:24:14;1.63;;;1.50;;
12650;SDS011;6390;49.400;8.670;2023-02-26T05:26:41;1.42;;;1.05;;
12650;SDS011;6390;49.400;8.670;2023-02-26T05:29:07;1.40;;;1.30;;
12650;SDS011;6390;49.400;8.670;2023-02-26T05:31:33;1.52;;;1.13;;
12650;SDS011;6390;49.400;8.670;2023-02-26T05:33:59;1.17;;;1.02;;
12650;SDS011;6390;49.400;8.670;2023-02-26T05:36:25;1.02;;;1.02;;
12650;SDS011;6390;49.400;8.670;2023-02-26T05:38:51;2.15;;;1.67;;
12650;SDS011;6390;49.400;8.670;2023-02-26T05:41:18;1.02;;;1.00;;
12650;SDS011;6390;49.400;8.670;2023-02-26T05:43:44;1.17;;;1.08;;
12650;SDS011;6390;49.400;8.670;2023-02-26T05:46:10;1.20;;;1.10;;
12650;SDS011;6390;49.400;8.670;2023-02-26T05:48:36;1.30;;;1.20;;
12650;SDS011;6390;49.400;8.670;2023-02-26T05:51:02;1.10;;;1.00;;
12650;SDS011;6390;49.400;8.670;2023-02-26T05:53:28;1.05;;;1.02;;
12650;SDS011;6390;49.400;8.670;2023-02-26T05:55:54;1.30;;;1.20;;
12650;SDS011;6390;49.400;8.670;2023-02-26T05:58:20;1.38;;;1.20;;
12650;SDS011;6390;49.400;8.670;2023-02-26T06:00:46;1.45;;;1.20;;
12650;SDS011;6390;49.400;8.670;2023-02-26T06:03:12;1.33;;;1.08;;
12650;SDS011;6390;49.400;8.670;2023-02-26T06:05:39;2.00;;;1.40;;
12650;SDS011;6390;49.400;8.670;2023-02-26T06:08:05;1.07;;;1.00;;
12650;SDS011;6390;49.400;8.670;2023-02-26T06:10:31;2.35;;;1.30;;
12650;SDS011;6390;49.400;8.670;2023-02-26T06:12:57;1.30;;;1.20;;
12650;SDS011;6390;49.400;8.670;2023-02-26T06:15:24;1.80;;;1.37;;
12650;SDS011;6390;49.400;8.670;2023-02-26T06:17:50;1.05;;;1.05;;
12650;SDS011;6390;49.400;8.670;2023-02-26T06:20:17;2.95;;;1.33;;
12650;SDS011;6390;49.400;8.670;2023-02-26T06:22:43;1.77;;;1.40;;
12650;SDS011;6390;49.400;8.670;2023-02-26T06:25:09;1.55;;;1.20;;
12650;SDS011;6390;49.400;8.670;2023-02-26T06:27:35;1.63;;;1.23;;
12650;SDS011;6390;49.400;8.670;2023-02-26T06:30:02;1.20;;;1.10;;
12650;SDS011;6390;49.400;8.670;2023-02-26T06:32:29;1.52;;;1.00;;
12650;SDS011;6390;49.400;8.670;2023-02-26T06:34:55;1.40;;;1.30;;
12650;SDS011;6390;49.400;8.670;2023-02-26T06:37:21;1.70;;;1.27;;
12650;SDS011;6390;49.400;8.670;2023-02-26T06:39:47;1.13;;;1.02;;
12650;SDS011;6390;49.400;8.670;2023-02-26T06:42:13;1.27;;;1.00;;
12650;SDS011;6390;49.400;8.670;2023-02-26T06:44:40;1.92;;;1.30;;
12650;SDS011;6390;49.400;8.670;2023-02-26T06:47:06;1.17;;;1.08;;
12650;SDS011;6390;49.400;8.670;2023-02-26T06:49:32;1.83;;;1.25;;
12650;SDS011;6390;49.400;8.670;2023-02-26T06:51:58;1.08;;;1.02;;
12650;SDS011;6390;49.400;8.670;2023-02-26T06:54:24;1.50;;;1.17;;
12650;SDS011;6390;49.400;8.670;2023-02-26T06:56:50;1.33;;;1.10;;
12650;SDS011;6390;49.400;8.670;2023-02-26T06:59:16;1.13;;;1.03;;
12650;SDS011;6390;49.400;8.670;2023-02-26T07:01:43;1.20;;;1.10;;
12650;SDS011;6390;49.400;8.670;2023-02-26T07:04:09;2.42;;;1.20;;
12650;SDS011;6390;49.400;8.670;2023-02-26T07:06:35;0.95;;;0.95;;
12650;SDS011;6390;49.400;8.670;2023-02-26T07:09:01;1.80;;;1.17;;
12650;SDS011;6390;49.400;8.670;2023-02-26T07:11:27;1.67;;;1.38;;
12650;SDS011;6390;49.400;8.670;2023-02-26T07:13:53;1.27;;;1.10;;
12650;SDS011;6390;49.400;8.670;2023-02-26T07:16:19;1.20;;;1.10;;
12650;SDS011;6390;49.400;8.670;2023-02-26T07:18:45;1.42;;;1.20;;
12650;SDS011;6390;49.400;8.670;2023-02-26T07:21:11;1.02;;;1.00;;
12650;SDS011;6390;49.400;8.670;2023-02-26T07:23:37;2.53;;;1.08;;
12650;SDS011;6390;49.400;8.670;2023-02-26T07:26:04;1.15;;;0.90;;
12650;SDS011;6390;49.400;8.670;2023-02-26T07:28:30;1.05;;;1.05;;
12650;SDS011;6390;49.400;8.670;2023-02-26T07:30:56;2.22;;;1.40;;
12650;SDS011;6390;49.400;8.670;2023-02-26T07:33:22;1.95;;;1.77;;
12650;SDS011;6390;49.400;8.670;2023-02-26T07:35:50;2.65;;;1.40;;
12650;SDS011;6390;49.400;8.670;2023-02-26T07:38:16;1.45;;;1.30;;
12650;SDS011;6390;49.400;8.670;2023-02-26T07:40:42;2.70;;;1.38;;
12650;SDS011;6390;49.400;8.670;2023-02-26T07:43:08;1.60;;;1.50;;
12650;SDS011;6390;49.400;8.670;2023-02-26T07:45:34;1.40;;;1.30;;
12650;SDS011;6390;49.400;8.670;2023-02-26T07:48:00;3.45;;;1.88;;
12650;SDS011;6390;49.400;8.670;2023-02-26T07:50:26;1.80;;;1.38;;
12650;SDS011;6390;49.400;8.670;2023-02-26T07:52:53;2.78;;;1.75;;
12650;SDS011;6390;49.400;8.670;2023-02-26T07:55:19;2.05;;;1.50;;
12650;SDS011;6390;49.400;8.670;2023-02-26T07:57:45;2.58;;;1.88;;
12650;SDS011;6390;49.400;8.670;2023-02-26T08:00:12;2.13;;;1.90;;
12650;SDS011;6390;49.400;8.670;2023-02-26T08:02:39;1.65;;;1.55;;
12650;SDS011;6390;49.400;8.670;2023-02-26T08:05:06;1.65;;;1.55;;
12650;SDS011;6390;49.400;8.670;2023-02-26T08:07:32;1.92;;;1.50;;
12650;SDS011;6390;49.400;8.670;2023-02-26T08:09:58;1.67;;;1.50;;
12650;SDS011;6390;49.400;8.670;2023-02-26T08:12:24;2.42;;;1.63;;
12650;SDS011;6390;49.400;8.670;2023-02-26T08:14:50;1.73;;;1.45;;
12650;SDS011;6390;49.400;8.670;2023-02-26T08:17:16;2.00;;;1.80;;
12650;SDS011;6390;49.400;8.670;2023-02-26T08:19:42;2.63;;;1.70;;
12650;SDS011;6390;49.400;8.670;2023-02-26T08:22:09;2.38;;;1.80;;
12650;SDS011;6390;49.400;8.670;2023-02-26T08:24:35;2.78;;;2.13;;
12650;SDS011;6390;49.400;8.670;2023-02-26T08:27:01;3.47;;;2.22;;
12650;SDS011;6390;49.400;8.670;2023-02-26T08:29:27;2.78;;;2.35;;
12650;SDS011;6390;49.400;8.670;2023-02-26T08:31:53;3.70;;;2.08;;
12650;SDS011;6390;49.400;8.670;2023-02-26T08:34:19;3.58;;;2.35;;
12650;SDS011;6390;49.400;8.670;2023-02-26T08:36:45;2.33;;;1.85;;
12650;SDS011;6390;49.400;8.670;2023-02-26T08:39:11;1.52;;;1.42;;
12650;SDS011;6390;49.400;8.670;2023-02-26T08:41:38;2.25;;;1.85;;
12650;SDS011;6390;49.400;8.670;2023-02-26T08:44:04;2.00;;;1.70;;
12650;SDS011;6390;49.400;8.670;2023-02-26T08:46:30;1.75;;;1.58;;
12650;SDS011;6390;49.400;8.670;2023-02-26T08:48:57;1.55;;;1.40;;
12650;SDS011;6390;49.400;8.670;2023-02-26T08:51:23;2.75;;;1.67;;
12650;SDS011;6390;49.400;8.670;2023-02-26T08:53:49;1.90;;;1.70;;
12650;SDS011;6390;49.400;8.670;2023-02-26T08:56:15;2.28;;;1.40;;
12650;SDS011;6390;49.400;8.670;2023-02-26T08:58:42;2.47;;;1.55;;
12650;SDS011;6390;49.400;8.670;2023-02-26T09:01:08;2.05;;;1.67;;
12650;SDS011;6390;49.400;8.670;2023-02-26T09:03:35;2.17;;;1.80;;
12650;SDS011;6390;49.400;8.670;2023-02-26T09:06:01;2.25;;;1.55;;
12650;SDS011;6390;49.400;8.670;2023-02-26T09:08:28;1.85;;;1.60;;
12650;SDS011;6390;49.400;8.670;2023-02-26T09:10:59;2.13;;;1.55;;
12650;SDS011;6390;49.400;8.670;2023-02-26T09:13:26;2.00;;;1.25;;
12650;SDS011;6390;49.400;8.670;2023-02-26T09:15:53;2.28;;;1.52;;
12650;SDS011;6390;49.400;8.670;2023-02-26T09:18:20;1.67;;;1.40;;
12650;SDS011;6390;49.400;8.670;2023-02-26T09:20:46;1.70;;;1.30;;
12650;SDS011;6390;49.400;8.670;2023-02-26T09:23:13;1.52;;;1.42;;
12650;SDS011;6390;49.400;8.670;2023-02-26T09:25:39;1.88;;;1.50;;
12650;SDS011;6390;49.400;8.670;2023-02-26T09:28:05;1.50;;;1.40;;
12650;SDS011;6390;49.400;8.670;2023-02-26T09:30:31;2.17;;;1.30;;
12650;SDS011;6390;49.400;8.670;2023-02-26T09:32:57;1.77;;;1.42;;
12650;SDS011;6390;49.400;8.670;2023-02-26T09:35:24;1.48;;;1.38;;
12650;SDS011;6390;49.400;8.670;2023-02-26T09:37:50;1.25;;;1.15;;
12650;SDS011;6390;49.400;8.670;2023-02-26T09:40:21;1.92;;;1.40;;
12650;SDS011;6390;49.400;8.670;2023-02-26T09:49:14;1.92;;;1.35;;
12650;SDS011;6390;49.400;8.670;2023-02-26T09:51:46;1.75;;;1.40;;
12650;SDS011;6390;49.400;8.670;2023-02-26T09:54:20;1.48;;;1.20;;
12650;SDS011;6390;49.400;8.670;2023-02-26T09:56:51;1.38;;;1.27;;
12650;SDS011;6390;49.400;8.670;2023-02-26T09:59:19;1.67;;;1.40;;
12650;SDS011;6390;49.400;8.670;2023-02-26T10:01:59;1.88;;;1.40;;
12650;SDS011;6390;49.400;8.670;2023-02-26T10:07:43;2.65;;;1.35;;
12650;SDS011;6390;49.400;8.670;2023-02-26T10:12:48;1.02;;;1.00;;
12650;SDS011;6390;49.400;8.670;2023-02-26T10:15:18;2.55;;;1.30;;
12650;SDS011;6390;49.400;8.670;2023-02-26T10:26:38;1.20;;;1.10;;
12650;SDS011;6390;49.400;8.670;2023-02-26T10:29:35;2.15;;;1.27;;
12650;SDS011;6390;49.400;8.670;2023-02-26T10:32:25;1.42;;;1.15;;
12650;SDS011;6390;49.400;8.670;2023-02-26T10:35:03;1.27;;;1.15;;
12650;SDS011;6390;49.400;8.670;2023-02-26T10:37:51;1.63;;;1.08;;
12650;SDS011;6390;49.400;8.670;2023-02-26T10:40:31;1.27;;;1.10;;
12650;SDS011;6390;49.400;8.670;2023-02-26T10:43:15;1.27;;;1.17;;
12650;SDS011;6390;49.400;8.670;2023-02-26T10:45:57;1.80;;;1.23;;
12650;SDS011;6390;49.400;8.670;2023-02-26T10:48:36;1.98;;;1.20;;
12650;SDS011;6390;49.400;8.670;2023-02-26T10:51:16;2.05;;;1.00;;
12650;SDS011;6390;49.400;8.670;2023-02-26T10:53:46;2.60;;;0.90;;
12650;SDS011;6390;49.400;8.670;2023-02-26T10:56:32;1.08;;;1.00;;
12650;SDS011;6390;49.400;8.670;2023-02-26T10:58:59;1.17;;;0.90;;
12650;SDS011;6390;49.400;8.670;2023-02-26T11:01:26;1.02;;;0.93;;
12650;SDS011;6390;49.400;8.670;2023-02-26T11:03:59;1.10;;;1.00;;
12650;SDS011;6390;49.400;8.670;2023-02-26T11:06:40;1.02;;;0.80;;
12650;SDS011;6390;49.400;8.670;2023-02-26T11:09:30;0.90;;;0.90;;
12650;SDS011;6390;49.400;8.670;2023-02-26T11:14:38;1.05;;;0.95;;
12650;SDS011;6390;49.400;8.670;2023-02-26T11:17:27;2.03;;;0.90;;
12650;SDS011;6390;49.400;8.670;2023-02-26T11:20:28;1.33;;;1.05;;
12650;SDS011;6390;49.400;8.670;2023-02-26T11:22:53;1.10;;;1.00;;
12650;SDS011;6390;49.400;8.670;2023-02-26T11:25:22;1.13;;;1.02;;
12650;SDS011;6390;49.400;8.670;2023-02-26T11:27:54;0.93;;;0.93;;
12650;SDS011;6390;49.400;8.670;2023-02-26T11:30:31;1.02;;;0.90;;
12650;SDS011;6390;49.400;8.670;2023-02-26T11:33:09;1.13;;;1.00;;
12650;SDS011;6390;49.400;8.670;2023-02-26T11:35:43;1.75;;;0.93;;
12650;SDS011;6390;49.400;8.670;2023-02-26T11:38:14;2.40;;;0.93;;
12650;SDS011;6390;49.400;8.670;2023-02-26T11:40:47;2.15;;;1.05;;
12650;SDS011;6390;49.400;8.670;2023-02-26T11:43:17;2.00;;;1.10;;
12650;SDS011;6390;49.400;8.670;2023-02-26T11:45:46;1.20;;;1.10;;
12650;SDS011;6390;49.400;8.670;2023-02-26T11:48:22;1.10;;;1.00;;
12650;SDS011;6390;49.400;8.670;2023-02-26T11:50:59;1.23;;;1.10;;
12650;SDS011;6390;49.400;8.670;2023-02-26T11:56:08;1.63;;;0.98;;
12650;SDS011;6390;49.400;8.670;2023-02-26T11:58:39;1.90;;;1.17;;
12650;SDS011;6390;49.400;8.670;2023-02-26T12:01:09;1.35;;;0.90;;
12650;SDS011;6390;49.400;8.670;2023-02-26T12:03:38;1.38;;;0.95;;
12650;SDS011;6390;49.400;8.670;2023-02-26T12:06:13;1.02;;;0.90;;
12650;SDS011;6390;49.400;8.670;2023-02-26T12:08:42;0.80;;;0.80;;
12650;SDS011;6390;49.400;8.670;2023-02-26T12:32:22;0.90;;;0.80;;
12650;SDS011;6390;49.400;8.670;2023-02-26T12:34:49;0.90;;;0.90;;
12650;SDS011;6390;49.400;8.670;2023-02-26T12:40:43;0.88;;;0.88;;
12650;SDS011;6390;49.400;8.670;2023-02-26T12:43:53;1.58;;;0.90;;
12650;SDS011;6390;49.400;8.670;2023-02-26T13:04:01;0.70;;;0.70;;
12650;SDS011;6390;49.400;8.670;2023-02-26T13:18:42;0.85;;;0.80;;
12650;SDS011;6390;49.400;8.670;2023-02-26T13:21:17;1.00;;;0.90;;
12650;SDS011;6390;49.400;8.670;2023-02-26T13:26:22;0.75;;;0.75;;
12650;SDS011;6390;49.400;8.670;2023-02-26T13:28:52;0.88;;;0.80;;
12650;SDS011;6390;49.400;8.670;2023-02-26T13:31:40;0.50;;;0.50;;
12650;SDS011;6390;49.400;8.670;2023-02-26T13:34:11;0.60;;;0.60;;
12650;SDS011;6390;49.400;8.670;2023-02-26T13:36:45;0.80;;;0.60;;
12650;SDS011;6390;49.400;8.670;2023-02-26T13:39:33;0.50;;;0.50;;
12650;SDS011;6390;49.400;8.670;2023-02-26T14:05:26;0.50;;;0.50;;
12650;SDS011;6390;49.400;8.670;2023-02-26T14:13:34;0.70;;;0.70;;
12650;SDS011;6390;49.400;8.670;2023-02-26T14:16:23;0.63;;;0.52;;
12650;SDS011;6390;49.400;8.670;2023-02-26T14:18:53;0.50;;;0.50;;
12650;SDS011;6390;49.400;8.670;2023-02-26T14:21:53;0.55;;;0.50;;
12650;SDS011;6390;49.400;8.670;2023-02-26T14:24:31;1.35;;;0.45;;
12650;SDS011;6390;49.400;8.670;2023-02-26T14:27:21;0.50;;;0.50;;
12650;SDS011;6390;49.400;8.670;2023-02-26T14:32:34;0.50;;;0.50;;
12650;SDS011;6390;49.400;8.670;2023-02-26T14:35:23;0.57;;;0.57;;
12650;SDS011;6390;49.400;8.670;2023-02-26T14:38:06;0.63;;;0.63;;
12650;SDS011;6390;49.400;8.670;2023-02-26T14:40:46;0.40;;;0.40;;
12650;SDS011;6390;49.400;8.670;2023-02-26T14:43:28;0.52;;;0.52;;
12650;SDS011;6390;49.400;8.670;2023-02-26T14:46:04;0.40;;;0.40;;
12650;SDS011;6390;49.400;8.670;2023-02-26T14:48:31;0.50;;;0.50;;
12650;SDS011;6390;49.400;8.670;2023-02-26T15:19:12;1.08;;;0.68;;
12650;SDS011;6390;49.400;8.670;2023-02-26T15:25:38;0.70;;;0.70;;
12650;SDS011;6390;49.400;8.670;2023-02-26T15:28:10;0.65;;;0.65;;
12650;SDS011;6390;49.400;8.670;2023-02-26T15:30:47;0.68;;;0.68;;
12650;SDS011;6390;49.400;8.670;2023-02-26T15:33:13;1.27;;;0.70;;
12650;SDS011;6390;49.400;8.670;2023-02-26T15:35:42;0.70;;;0.70;;
12650;SDS011;6390;49.400;8.670;2023-02-26T15:38:09;0.52;;;0.52;;
12650;SDS011;6390;49.400;8.670;2023-02-26T15:40:35;0.88;;;0.88;;
12650;SDS011;6390;49.400;8.670;2023-02-26T15:43:02;0.80;;;0.70;;
12650;SDS011;6390;49.400;8.670;2023-02-26T15:45:35;0.93;;;0.80;;
12650;SDS011;6390;49.400;8.670;2023-02-26T15:48:13;0.90;;;0.77;;
12650;SDS011;6390;49.400;8.670;2023-02-26T15:51:07;0.50;;;0.50;;
12650;SDS011;6390;49.400;8.670;2023-02-26T15:53:36;0.80;;;0.80;;
12650;SDS011;6390;49.400;8.670;2023-02-26T15:56:09;0.70;;;0.70;;
12650;SDS011;6390;49.400;8.670;2023-02-26T15:58:45;2.05;;;1.50;;
12650;SDS011;6390;49.400;8.670;2023-02-26T16:01:24;1.67;;;0.93;;
12650;SDS011;6390;49.400;8.670;2023-02-26T16:03:55;0.77;;;0.77;;
12650;SDS011;6390;49.400;8.670;2023-02-26T16:06:27;0.80;;;0.80;;
12650;SDS011;6390;49.400;8.670;2023-02-26T16:08:58;0.80;;;0.80;;
12650;SDS011;6390;49.400;8.670;2023-02-26T16:11:27;0.60;;;0.60;;
12650;SDS011;6390;49.400;8.670;2023-02-26T16:13:59;0.70;;;0.70;;
12650;SDS011;6390;49.400;8.670;2023-02-26T16:16:34;0.70;;;0.70;;
12650;SDS011;6390;49.400;8.670;2023-02-26T16:19:16;0.65;;;0.65;;
12650;SDS011;6390;49.400;8.670;2023-02-26T16:21:45;0.55;;;0.55;;
12650;SDS011;6390;49.400;8.670;2023-02-26T16:24:14;1.00;;;0.82;;
12650;SDS011;6390;49.400;8.670;2023-02-26T16:26:45;0.70;;;0.60;;
12650;SDS011;6390;49.400;8.670;2023-02-26T16:29:26;0.63;;;0.63;;
12650;SDS011;6390;49.400;8.670;2023-02-26T16:31:54;0.63;;;0.60;;
12650;SDS011;6390;49.400;8.670;2023-02-26T16:34:27;0.60;;;0.60;;
12650;SDS011;6390;49.400;8.670;2023-02-26T16:39:42;0.60;;;0.60;;
12650;SDS011;6390;49.400;8.670;2023-02-26T16:42:13;0.68;;;0.68;;
12650;SDS011;6390;49.400;8.670;2023-02-26T16:44:49;0.60;;;0.60;;
12650;SDS011;6390;49.400;8.670;2023-02-26T16:47:21;1.30;;;0.70;;
12650;SDS011;6390;49.400;8.670;2023-02-26T16:49:49;0.77;;;0.77;;
12650;SDS011;6390;49.400;8.670;2023-02-26T16:52:17;1.10;;;0.80;;
12650;SDS011;6390;49.400;8.670;2023-02-26T16:54:52;0.93;;;0.63;;
12650;SDS011;6390;49.400;8.670;2023-02-26T16:57:24;0.70;;;0.70;;
12650;SDS011;6390;49.400;8.670;2023-02-26T16:59:58;0.68;;;0.68;;
12650;SDS011;6390;49.400;8.670;2023-02-26T17:02:31;1.13;;;0.70;;
12650;SDS011;6390;49.400;8.670;2023-02-26T17:04:59;0.60;;;0.60;;
12650;SDS011;6390;49.400;8.670;2023-02-26T17:07:52;0.70;;;0.70;;
12650;SDS011;6390;49.400;8.670;2023-02-26T17:11:14;0.90;;;0.88;;
12650;SDS011;6390;49.400;8.670;2023-02-26T17:13:22;1.02;;;0.75;;
12650;SDS011;6390;49.400;8.670;2023-02-26T17:15:57;0.68;;;0.68;;
12650;SDS011;6390;49.400;8.670;2023-02-26T17:18:29;0.80;;;0.80;;
12650;SDS011;6390;49.400;8.670;2023-02-26T17:20:56;0.63;;;0.63;;
12650;SDS011;6390;49.400;8.670;2023-02-26T17:23:24;0.63;;;0.63;;
12650;SDS011;6390;49.400;8.670;2023-02-26T17:25:54;1.13;;;0.70;;
12650;SDS011;6390;49.400;8.670;2023-02-26T17:28:31;0.70;;;0.70;;
12650;SDS011;6390;49.400;8.670;2023-02-26T17:31:03;0.60;;;0.60;;
12650;SDS011;6390;49.400;8.670;2023-02-26T17:33:29;0.65;;;0.65;;
12650;SDS011;6390;49.400;8.670;2023-02-26T17:35:57;0.65;;;0.65;;
12650;SDS011;6390;49.400;8.670;2023-02-26T17:38:26;0.70;;;0.70;;
12650;SDS011;6390;49.400;8.670;2023-02-26T17:40:52;0.80;;;0.80;;
12650;SDS011;6390;49.400;8.670;2023-02-26T17:43:20;0.68;;;0.68;;
12650;SDS011;6390;49.400;8.670;2023-02-26T17:45:46;1.20;;;1.10;;
12650;SDS011;6390;49.400;8.670;2023-02-26T17:48:13;1.10;;;0.98;;
12650;SDS011;6390;49.400;8.670;2023-02-26T17:50:50;0.98;;;0.88;;
12650;SDS011;6390;49.400;8.670;2023-02-26T17:53:22;0.85;;;0.77;;
12650;SDS011;6390;49.400;8.670;2023-02-26T17:55:54;0.80;;;0.60;;
12650;SDS011;6390;49.400;8.670;2023-02-26T17:58:24;1.15;;;0.70;;
12650;SDS011;6390;49.400;8.670;2023-02-26T18:00:54;1.52;;;0.93;;
12650;SDS011;6390;49.400;8.670;2023-02-26T18:03:20;1.30;;;0.80;;
12650;SDS011;6390;49.400;8.670;2023-02-26T18:05:47;0.70;;;0.70;;
12650;SDS011;6390;49.400;8.670;2023-02-26T18:08:32;0.60;;;0.60;;
12650;SDS011;6390;49.400;8.670;2023-02-26T18:10:59;0.93;;;0.77;;
12650;SDS011;6390;49.400;8.670;2023-02-26T18:13:26;0.98;;;0.70;;
12650;SDS011;6390;49.400;8.670;2023-02-26T18:15:53;0.80;;;0.80;;
12650;SDS011;6390;49.400;8.670;2023-02-26T18:18:22;1.27;;;0.95;;
12650;SDS011;6390;49.400;8.670;2023-02-26T18:20:49;1.02;;;0.90;;
12650;SDS011;6390;49.400;8.670;2023-02-26T18:23:16;1.70;;;0.90;;
12650;SDS011;6390;49.400;8.670;2023-02-26T18:25:43;1.10;;;1.00;;
12650;SDS011;6390;49.400;8.670;2023-02-26T18:28:16;1.45;;;1.00;;
12650;SDS011;6390;49.400;8.670;2023-02-26T18:30:48;1.08;;;0.90;;
12650;SDS011;6390;49.400;8.670;2023-02-26T18:33:15;0.98;;;0.90;;
12650;SDS011;6390;49.400;8.670;2023-02-26T18:35:42;1.00;;;0.90;;
12650;SDS011;6390;49.400;8.670;2023-02-26T18:38:15;1.02;;;0.90;;
12650;SDS011;6390;49.400;8.670;2023-02-26T18:40:44;1.50;;;1.30;;
12650;SDS011;6390;49.400;8.670;2023-02-26T18:43:11;0.98;;;0.85;;
12650;SDS011;6390;49.400;8.670;2023-02-26T18:45:38;0.90;;;0.88;;
12650;SDS011;6390;49.400;8.670;2023-02-26T18:48:05;0.98;;;0.90;;
12650;SDS011;6390;49.400;8.670;2023-02-26T18:50:31;1.00;;;0.80;;
12650;SDS011;6390;49.400;8.670;2023-02-26T18:52:57;1.20;;;1.10;;
12650;SDS011;6390;49.400;8.670;2023-02-26T18:55:23;1.80;;;1.10;;